Voyager — C6WC2 — position and weather

sailwx.info

Track history (hours):
 
Tides and Currents Weather Stations Pressure Air Temp Water Temp Dewpoint Dewpoint Depression Visibility Wind Speed Wind Dir Waves Ship Positions

Voyager

Last reported at 2015-Jul-28 21:04 UTC. Time now 2015-Aug-01 16:14 UTC.
Position N 59°60' E 004°48'.

Length 151 m; draft 6 m.

Type: Passenger vessel. MMSI: 309695000.

Date/timePositionNaut miles runAvg speedWind from/ knotsBaromVisibWave heightAir tempDewpointWater temp
2015-Jul-28 21:04N 59°60' E 004°48'1215.3
2015-Jul-28 20:18N 59°57' E 005°10'1114.4
2015-Jul-28 19:33N 59°54' E 005°31'9 8.6
2015-Jul-28 18:33N 59°57' E 005°48'4 0.3
2015-Jul-28 01:04N 59°60' E 005°54'816.4
2015-Jul-28 00:33N 59°53' E 005°43'1616.1
2015-Jul-27 23:33N 59°41' E 005°23'1515.1
2015-Jul-27 22:33N 59°27' E 005°14'10 9.7
2015-Jul-27 21:33N 59°17' E 005°20'1414.5
2015-Jul-27 20:33N 59°05' E 005°33'8 8.3
2015-Jul-27 19:33N 58°58' E 005°44'0 0.0
2015-Jul-27 18:33N 58°58' E 005°44'0 0.0
2015-Jul-27 17:33N 58°58' E 005°44'0 0.0
2015-Jul-27 16:33N 58°58' E 005°44'0 0.0
2015-Jul-27 15:33N 58°58' E 005°44'0 0.0
2015-Jul-27 14:33N 58°58' E 005°44'0 0.0
2015-Jul-27 13:33N 58°58' E 005°44'1 1.3
2015-Jul-27 12:33N 58°59' E 005°42'6 5.8
2015-Jul-27 11:33N 58°56' E 005°33'1312.9
2015-Jul-27 10:33N 58°45' E 005°21'44914.0
2015-Jul-26 02:33N 51°25' E 002°42'9 8.9
2015-Jul-26 01:34N 51°23' E 002°56'1010.2
2015-Jul-26 00:34N 51°21' E 003°12'0 0.1
2015-Jul-25 23:32N 51°21' E 003°12'0 0.0
2015-Jul-25 22:32N 51°21' E 003°12'0 0.0
2015-Jul-25 21:32N 51°21' E 003°12'0 0.0
2015-Jul-25 20:32N 51°21' E 003°12'0 0.0
2015-Jul-25 19:32N 51°21' E 003°12'5 5.2
2015-Jul-25 18:33N 51°24' E 003°06'1413.5
2015-Jul-25 17:33N 51°23' E 002°44'3 3.1
2015-Jul-25 16:33N 51°26' E 002°42'2 2.5
2015-Jul-25 15:34N 51°28' E 002°41'3 0.3
2015-Jul-25 07:33N 51°30' E 002°44'6 5.9
2015-Jul-25 06:29N 51°24' E 002°44'1 1.0
2015-Jul-25 05:33N 51°23' E 002°44'4314.3
2015-Jul-25 02:33N 52°06' E 002°57'1918.2
2015-Jul-25 01:32N 52°22' E 003°12'3517.5
2015-Jul-24 23:32N 52°50' E 003°46'1716.6
2015-Jul-24 22:32N 53°02' E 004°06'3216.0
2015-Jul-24 20:31N 53°29' E 004°36'1717.8
2015-Jul-24 19:33N 53°35' E 005°03'1918.6
2015-Jul-24 18:34N 53°41' E 005°32'1818.3
2015-Jul-24 17:33N 53°47' E 006°02'2117.8
2015-Jul-24 16:24N 53°53' E 006°35'3116.7
2015-Jul-24 14:33N 53°60' E 007°26'1616.0
2015-Jul-24 13:33N 54°02' E 007°53'1515.4
2015-Jul-24 12:33N 54°00' E 008°19'1616.0
2015-Jul-24 11:33N 53°53' E 008°43'1515.1
2015-Jul-24 10:33N 53°54' E 009°08'2 2.3
2015-Jul-24 09:33N 53°55' E 009°11'7 7.0
2015-Jul-24 08:33N 54°01' E 009°18'8 8.2
2015-Jul-24 07:33N 54°09' E 009°22'8 8.3
2015-Jul-24 06:33N 54°12' E 009°34'8 7.7
2015-Jul-24 05:33N 54°18' E 009°43'7 7.0
2015-Jul-24 04:33N 54°21' E 009°54'7 7.5
2015-Jul-24 03:33N 54°22' E 010°06'1 1.3
2015-Jul-24 02:33N 54°22' E 010°08'3 3.3
2015-Jul-24 01:33N 54°24' E 010°12'1313.2
2015-Jul-24 00:33N 54°33' E 010°30'1512.8
2015-Jul-23 23:23N 54°36' E 010°55'1012.5
2015-Jul-23 22:33N 54°35' E 011°13'1313.1
2015-Jul-23 21:33N 54°30' E 011°33'1312.9
2015-Jul-23 20:33N 54°23' E 011°52'1212.0
2015-Jul-23 19:33N 54°14' E 012°05'3 0.2
2015-Jul-23 05:30N 54°10' E 012°06'9 9.1
2015-Jul-23 04:33N 54°19' E 012°01'1616.4
2015-Jul-23 03:33N 54°34' E 012°13'4314.3
2015-Jul-23 00:33N 54°52' E 013°20'3416.9
2015-Jul-22 22:32N 54°40' E 014°15'1816.8
2015-Jul-22 21:27N 54°40' E 014°46'1617.3
2015-Jul-22 20:33N 54°42' E 015°13'10817.2
2015-Jul-22 14:15N 54°56' E 018°20'1216.2
2015-Jul-22 13:32N 54°50' E 018°37'1616.1
2015-Jul-22 12:33N 54°39' E 018°57'1615.8
2015-Jul-22 11:33N 54°26' E 018°40'2 2.1
2015-Jul-22 10:31N 54°24' E 018°40'0 0.0
2015-Jul-22 09:31N 54°24' E 018°40'0 0.0
2015-Jul-22 08:31N 54°24' E 018°40'0 0.0
2015-Jul-22 07:25N 54°24' E 018°40'0 0.1
2015-Jul-22 06:33N 54°24' E 018°40'0 0.0
2015-Jul-22 05:33N 54°24' E 018°40'0 0.0
2015-Jul-22 04:33N 54°24' E 018°40'3 3.4
2015-Jul-22 03:33N 54°28' E 018°41'9 8.9
2015-Jul-22 02:33N 54°34' E 018°51'10 9.6
2015-Jul-22 01:33N 54°43' E 018°58'10 9.7
2015-Jul-22 00:33N 54°52' E 019°03'10 9.8
2015-Jul-21 23:33N 55°02' E 019°09'10 9.9
2015-Jul-21 22:33N 55°11' E 019°14'1110.1
2015-Jul-21 21:29N 55°22' E 019°20'1110.1
2015-Jul-21 20:24N 55°32' E 019°26'24410.5
2015-Jul-20 21:11N 59°20' E 022°05'711.3
2015-Jul-20 20:33N 59°25' E 022°17'3310.8
2015-Jul-20 17:32N 59°34' E 023°19'3611.0
2015-Jul-20 14:13N 59°30' E 024°30'710.4
2015-Jul-20 13:33N 59°32' E 024°43'5 4.6
2015-Jul-20 12:27N 59°27' E 024°46'0 0.0
2015-Jul-20 11:21N 59°27' E 024°46'0 0.0
2015-Jul-20 10:30N 59°27' E 024°46'0 0.0
2015-Jul-20 09:30N 59°27' E 024°46'0 0.0
2015-Jul-20 08:33N 59°27' E 024°46'0 0.0
2015-Jul-20 07:30N 59°27' E 024°46'0 0.0
2015-Jul-20 06:30N 59°27' E 024°46'0 0.0
2015-Jul-20 05:30N 59°27' E 024°46'0 0.3
2015-Jul-20 04:33N 59°27' E 024°46'1414.0
2015-Jul-20 03:34N 59°41' E 024°39'4815.8
2015-Jul-20 00:32N 59°58' E 026°07'1616.9
2015-Jul-19 23:34N 60°01' E 026°40'2016.2
2015-Jul-19 22:17N 60°05' E 027°20'7314.7
2015-Jul-19 17:21N 59°59' E 029°46'1012.6
2015-Jul-19 16:33N 59°54' E 030°04'6 6.1
2015-Jul-19 15:32N 59°55' E 030°16'1 0.6
2015-Jul-19 14:33N 59°56' E 030°16'0 0.0
2015-Jul-19 13:33N 59°56' E 030°16'0 0.0
2015-Jul-19 12:33N 59°56' E 030°16'0 0.0
2015-Jul-19 11:33N 59°56' E 030°16'0 0.0
2015-Jul-19 10:33N 59°56' E 030°16'0 0.0
2015-Jul-19 09:33N 59°56' E 030°16'0 0.0
2015-Jul-19 08:33N 59°56' E 030°16'0 0.0
2015-Jul-19 07:33N 59°56' E 030°16'0 0.0
2015-Jul-19 06:33N 59°56' E 030°16'0 0.0
2015-Jul-19 05:33N 59°56' E 030°16'0 0.0
2015-Jul-19 04:33N 59°56' E 030°16'0 0.0
2015-Jul-19 00:33N 59°56' E 030°16'0 0.0
2015-Jul-18 23:33N 59°56' E 030°16'0 0.0
2015-Jul-18 22:33N 59°56' E 030°16'0 0.0
2015-Jul-18 21:33N 59°56' E 030°16'  
Track history (hours):
 
Tides and Currents Weather Stations Pressure Air Temp Water Temp Dewpoint Dewpoint Depression Visibility Wind Speed Wind Dir Waves Ship Positions

Voyager

Last reported at 2015-Jul-28 21:04 UTC. Time now 2015-Aug-01 16:14 UTC.
Position N 59°60' E 004°48'.

Length 151 m; draft 6 m.

Type: Passenger vessel. MMSI: 309695000.

Date/timePositionNaut miles runAvg speedWind from/ knotsBaromVisibWave heightAir tempDewpointWater temp
2015-Jul-28 21:04N 59°60' E 004°48'1215.3
2015-Jul-28 20:18N 59°57' E 005°10'1114.4
2015-Jul-28 19:33N 59°54' E 005°31'9 8.6
2015-Jul-28 18:33N 59°57' E 005°48'4 0.3
2015-Jul-28 01:04N 59°60' E 005°54'816.4
2015-Jul-28 00:33N 59°53' E 005°43'1616.1
2015-Jul-27 23:33N 59°41' E 005°23'1515.1
2015-Jul-27 22:33N 59°27' E 005°14'10 9.7
2015-Jul-27 21:33N 59°17' E 005°20'1414.5
2015-Jul-27 20:33N 59°05' E 005°33'8 8.3
2015-Jul-27 19:33N 58°58' E 005°44'0 0.0
2015-Jul-27 18:33N 58°58' E 005°44'0 0.0
2015-Jul-27 17:33N 58°58' E 005°44'0 0.0
2015-Jul-27 16:33N 58°58' E 005°44'0 0.0
2015-Jul-27 15:33N 58°58' E 005°44'0 0.0
2015-Jul-27 14:33N 58°58' E 005°44'0 0.0
2015-Jul-27 13:33N 58°58' E 005°44'1 1.3
2015-Jul-27 12:33N 58°59' E 005°42'6 5.8
2015-Jul-27 11:33N 58°56' E 005°33'1312.9
2015-Jul-27 10:33N 58°45' E 005°21'44914.0
2015-Jul-26 02:33N 51°25' E 002°42'9 8.9
2015-Jul-26 01:34N 51°23' E 002°56'1010.2
2015-Jul-26 00:34N 51°21' E 003°12'0 0.1
2015-Jul-25 23:32N 51°21' E 003°12'0 0.0
2015-Jul-25 22:32N 51°21' E 003°12'0 0.0
2015-Jul-25 21:32N 51°21' E 003°12'0 0.0
2015-Jul-25 20:32N 51°21' E 003°12'0 0.0
2015-Jul-25 19:32N 51°21' E 003°12'5 5.2
2015-Jul-25 18:33N 51°24' E 003°06'1413.5
2015-Jul-25 17:33N 51°23' E 002°44'3 3.1
2015-Jul-25 16:33N 51°26' E 002°42'2 2.5
2015-Jul-25 15:34N 51°28' E 002°41'3 0.3
2015-Jul-25 07:33N 51°30' E 002°44'6 5.9
2015-Jul-25 06:29N 51°24' E 002°44'1 1.0
2015-Jul-25 05:33N 51°23' E 002°44'4314.3
2015-Jul-25 02:33N 52°06' E 002°57'1918.2
2015-Jul-25 01:32N 52°22' E 003°12'3517.5
2015-Jul-24 23:32N 52°50' E 003°46'1716.6
2015-Jul-24 22:32N 53°02' E 004°06'3216.0
2015-Jul-24 20:31N 53°29' E 004°36'1717.8
2015-Jul-24 19:33N 53°35' E 005°03'1918.6
2015-Jul-24 18:34N 53°41' E 005°32'1818.3
2015-Jul-24 17:33N 53°47' E 006°02'2117.8
2015-Jul-24 16:24N 53°53' E 006°35'3116.7
2015-Jul-24 14:33N 53°60' E 007°26'1616.0
2015-Jul-24 13:33N 54°02' E 007°53'1515.4
2015-Jul-24 12:33N 54°00' E 008°19'1616.0
2015-Jul-24 11:33N 53°53' E 008°43'1515.1
2015-Jul-24 10:33N 53°54' E 009°08'2 2.3
2015-Jul-24 09:33N 53°55' E 009°11'7 7.0
2015-Jul-24 08:33N 54°01' E 009°18'8 8.2
2015-Jul-24 07:33N 54°09' E 009°22'8 8.3
2015-Jul-24 06:33N 54°12' E 009°34'8 7.7
2015-Jul-24 05:33N 54°18' E 009°43'7 7.0
2015-Jul-24 04:33N 54°21' E 009°54'7 7.5
2015-Jul-24 03:33N 54°22' E 010°06'1 1.3
2015-Jul-24 02:33N 54°22' E 010°08'3 3.3
2015-Jul-24 01:33N 54°24' E 010°12'1313.2
2015-Jul-24 00:33N 54°33' E 010°30'1512.8
2015-Jul-23 23:23N 54°36' E 010°55'1012.5
2015-Jul-23 22:33N 54°35' E 011°13'1313.1
2015-Jul-23 21:33N 54°30' E 011°33'1312.9
2015-Jul-23 20:33N 54°23' E 011°52'1212.0
2015-Jul-23 19:33N 54°14' E 012°05'3 0.2
2015-Jul-23 05:30N 54°10' E 012°06'9 9.1
2015-Jul-23 04:33N 54°19' E 012°01'1616.4
2015-Jul-23 03:33N 54°34' E 012°13'4314.3
2015-Jul-23 00:33N 54°52' E 013°20'3416.9
2015-Jul-22 22:32N 54°40' E 014°15'1816.8
2015-Jul-22 21:27N 54°40' E 014°46'1617.3
2015-Jul-22 20:33N 54°42' E 015°13'10817.2
2015-Jul-22 14:15N 54°56' E 018°20'1216.2
2015-Jul-22 13:32N 54°50' E 018°37'1616.1
2015-Jul-22 12:33N 54°39' E 018°57'1615.8
2015-Jul-22 11:33N 54°26' E 018°40'2 2.1
2015-Jul-22 10:31N 54°24' E 018°40'0 0.0
2015-Jul-22 09:31N 54°24' E 018°40'0 0.0
2015-Jul-22 08:31N 54°24' E 018°40'0 0.0
2015-Jul-22 07:25N 54°24' E 018°40'0 0.1
2015-Jul-22 06:33N 54°24' E 018°40'0 0.0
2015-Jul-22 05:33N 54°24' E 018°40'0 0.0
2015-Jul-22 04:33N 54°24' E 018°40'3 3.4
2015-Jul-22 03:33N 54°28' E 018°41'9 8.9
2015-Jul-22 02:33N 54°34' E 018°51'10 9.6
2015-Jul-22 01:33N 54°43' E 018°58'10 9.7
2015-Jul-22 00:33N 54°52' E 019°03'10 9.8
2015-Jul-21 23:33N 55°02' E 019°09'10 9.9
2015-Jul-21 22:33N 55°11' E 019°14'1110.1
2015-Jul-21 21:29N 55°22' E 019°20'1110.1
2015-Jul-21 20:24N 55°32' E 019°26'24410.5
2015-Jul-20 21:11N 59°20' E 022°05'711.3
2015-Jul-20 20:33N 59°25' E 022°17'3310.8
2015-Jul-20 17:32N 59°34' E 023°19'3611.0
2015-Jul-20 14:13N 59°30' E 024°30'710.4
2015-Jul-20 13:33N 59°32' E 024°43'5 4.6
2015-Jul-20 12:27N 59°27' E 024°46'0 0.0
2015-Jul-20 11:21N 59°27' E 024°46'0 0.0
2015-Jul-20 10:30N 59°27' E 024°46'0 0.0
2015-Jul-20 09:30N 59°27' E 024°46'0 0.0
2015-Jul-20 08:33N 59°27' E 024°46'0 0.0
2015-Jul-20 07:30N 59°27' E 024°46'0 0.0
2015-Jul-20 06:30N 59°27' E 024°46'0 0.0
2015-Jul-20 05:30N 59°27' E 024°46'0 0.3
2015-Jul-20 04:33N 59°27' E 024°46'1414.0
2015-Jul-20 03:34N 59°41' E 024°39'4815.8
2015-Jul-20 00:32N 59°58' E 026°07'1616.9
2015-Jul-19 23:34N 60°01' E 026°40'2016.2
2015-Jul-19 22:17N 60°05' E 027°20'7314.7
2015-Jul-19 17:21N 59°59' E 029°46'1012.6
2015-Jul-19 16:33N 59°54' E 030°04'6 6.1
2015-Jul-19 15:32N 59°55' E 030°16'1 0.6
2015-Jul-19 14:33N 59°56' E 030°16'0 0.0
2015-Jul-19 13:33N 59°56' E 030°16'0 0.0
2015-Jul-19 12:33N 59°56' E 030°16'0 0.0
2015-Jul-19 11:33N 59°56' E 030°16'0 0.0
2015-Jul-19 10:33N 59°56' E 030°16'0 0.0
2015-Jul-19 09:33N 59°56' E 030°16'0 0.0
2015-Jul-19 08:33N 59°56' E 030°16'0 0.0
2015-Jul-19 07:33N 59°56' E 030°16'0 0.0
2015-Jul-19 06:33N 59°56' E 030°16'0 0.0
2015-Jul-19 05:33N 59°56' E 030°16'0 0.0
2015-Jul-19 04:33N 59°56' E 030°16'0 0.0
2015-Jul-19 00:33N 59°56' E 030°16'0 0.0
2015-Jul-18 23:33N 59°56' E 030°16'0 0.0
2015-Jul-18 22:33N 59°56' E 030°16'0 0.0
2015-Jul-18 21:33N 59°56' E 030°16'  

Dump ship's entire track history